sensor_id;sensor_type;location;lat;lon;timestamp;pressure;altitude;pressure_sealevel;temperature;humidity
54122;BME280;40029;58.708;50.190;2024-01-25T00:00:53;99409.63;;;-7.93;80.99
54122;BME280;40029;58.708;50.190;2024-01-25T00:03:25;99411.38;;;-7.92;80.92
54122;BME280;40029;58.708;50.190;2024-01-25T00:06:14;99407.72;;;-8.02;81.47
54122;BME280;40029;58.708;50.190;2024-01-25T00:08:45;99406.97;;;-7.98;81.39
54122;BME280;40029;58.708;50.190;2024-01-25T00:11:17;99407.69;;;-8.03;81.48
54122;BME280;40029;58.708;50.190;2024-01-25T00:13:48;99400.94;;;-8.00;81.64
54122;BME280;40029;58.708;50.190;2024-01-25T00:16:19;99409.34;;;-8.05;81.38
54122;BME280;40029;58.708;50.190;2024-01-25T00:18:50;99411.94;;;-8.04;81.14
54122;BME280;40029;58.708;50.190;2024-01-25T00:21:44;99405.94;;;-8.04;81.65
54122;BME280;40029;58.708;50.190;2024-01-25T00:24:15;99403.59;;;-7.95;81.23
54122;BME280;40029;58.708;50.190;2024-01-25T00:27:04;99402.59;;;-8.02;80.99
54122;BME280;40029;58.708;50.190;2024-01-25T00:29:36;99408.28;;;-8.12;81.18
54122;BME280;40029;58.708;50.190;2024-01-25T00:32:26;99402.50;;;-8.05;80.90
54122;BME280;40029;58.708;50.190;2024-01-25T00:34:58;99399.69;;;-8.14;81.08
54122;BME280;40029;58.708;50.190;2024-01-25T00:37:29;99403.31;;;-8.07;80.94
54122;BME280;40029;58.708;50.190;2024-01-25T00:40:01;99397.25;;;-8.09;81.19
54122;BME280;40029;58.708;50.190;2024-01-25T00:42:51;99393.91;;;-8.07;80.78
54122;BME280;40029;58.708;50.190;2024-01-25T00:45:25;99402.16;;;-8.17;80.98
54122;BME280;40029;58.708;50.190;2024-01-25T00:47:56;99397.16;;;-8.12;81.01
54122;BME280;40029;58.708;50.190;2024-01-25T00:50:27;99399.78;;;-8.11;80.46
54122;BME280;40029;58.708;50.190;2024-01-25T00:52:59;99406.56;;;-8.13;80.97
54122;BME280;40029;58.708;50.190;2024-01-25T00:55:30;99405.88;;;-8.07;80.63
54122;BME280;40029;58.708;50.190;2024-01-25T00:58:02;99399.88;;;-8.06;80.51
54122;BME280;40029;58.708;50.190;2024-01-25T01:00:52;99393.19;;;-8.01;80.31
54122;BME280;40029;58.708;50.190;2024-01-25T01:03:23;99388.69;;;-8.10;80.24
54122;BME280;40029;58.708;50.190;2024-01-25T01:06:13;99395.28;;;-8.20;80.97
54122;BME280;40029;58.708;50.190;2024-01-25T01:08:44;99386.66;;;-8.22;80.69
54122;BME280;40029;58.708;50.190;2024-01-25T01:11:16;99392.84;;;-8.15;80.56
54122;BME280;40029;58.708;50.190;2024-01-25T01:14:05;99395.38;;;-8.17;80.96
54122;BME280;40029;58.708;50.190;2024-01-25T01:16:37;99388.47;;;-8.18;81.04
54122;BME280;40029;58.708;50.190;2024-01-25T01:19:08;99382.69;;;-8.10;80.99
54122;BME280;40029;58.708;50.190;2024-01-25T01:21:58;99383.34;;;-8.18;80.86
54122;BME280;40029;58.708;50.190;2024-01-25T01:24:29;99383.47;;;-8.13;81.21
54122;BME280;40029;58.708;50.190;2024-01-25T01:27:19;99383.75;;;-8.02;80.49
54122;BME280;40029;58.708;50.190;2024-01-25T01:29:52;99388.81;;;-8.05;80.86
54122;BME280;40029;58.708;50.190;2024-01-25T01:32:23;99383.63;;;-8.07;80.75
54122;BME280;40029;58.708;50.190;2024-01-25T01:34:54;99386.28;;;-8.04;80.32
54122;BME280;40029;58.708;50.190;2024-01-25T01:37:25;99381.19;;;-8.02;80.29
54122;BME280;40029;58.708;50.190;2024-01-25T01:40:15;99383.06;;;-7.95;80.04
54122;BME280;40029;58.708;50.190;2024-01-25T01:43:04;99383.75;;;-8.02;80.23
54122;BME280;40029;58.708;50.190;2024-01-25T01:45:36;99389.81;;;-7.99;79.88
54122;BME280;40029;58.708;50.190;2024-01-25T01:48:07;99384.34;;;-8.12;80.56
54122;BME280;40029;58.708;50.190;2024-01-25T01:50:38;99382.84;;;-8.04;80.08
54122;BME280;40029;58.708;50.190;2024-01-25T01:53:10;99382.84;;;-8.04;80.05
54122;BME280;40029;58.708;50.190;2024-01-25T01:55:41;99385.34;;;-8.07;80.22
54122;BME280;40029;58.708;50.190;2024-01-25T01:58:13;99380.31;;;-8.03;80.35
54122;BME280;40029;58.708;50.190;2024-01-25T02:00:45;99375.06;;;-8.07;80.04
54122;BME280;40029;58.708;50.190;2024-01-25T02:03:19;99382.78;;;-8.07;80.34
54122;BME280;40029;58.708;50.190;2024-01-25T02:06:09;99381.19;;;-8.02;80.19
54122;BME280;40029;58.708;50.190;2024-01-25T02:08:40;99382.84;;;-8.04;80.12
54122;BME280;40029;58.708;50.190;2024-01-25T02:11:30;99377.56;;;-8.10;80.75
54122;BME280;40029;58.708;50.190;2024-01-25T02:14:01;99382.63;;;-8.12;80.43
54122;BME280;40029;58.708;50.190;2024-01-25T02:16:32;99381.59;;;-8.20;80.57
54122;BME280;40029;58.708;50.190;2024-01-25T02:19:03;99385.91;;;-8.18;80.39
54122;BME280;40029;58.708;50.190;2024-01-25T02:21:35;99373.94;;;-8.17;80.94
54122;BME280;40029;58.708;50.190;2024-01-25T02:24:06;99376.81;;;-8.06;80.57
54122;BME280;40029;58.708;50.190;2024-01-25T02:26:37;99378.47;;;-8.08;80.48
54122;BME280;40029;58.708;50.190;2024-01-25T02:29:09;99384.50;;;-8.06;80.66
54122;BME280;40029;58.708;50.190;2024-01-25T02:31:41;99385.41;;;-8.04;80.38
54122;BME280;40029;58.708;50.190;2024-01-25T02:34:12;99385.16;;;-8.15;80.47
54122;BME280;40029;58.708;50.190;2024-01-25T02:36:43;99390.13;;;-8.20;80.79
54122;BME280;40029;58.708;50.190;2024-01-25T02:39:14;99375.66;;;-8.18;80.52
54122;BME280;40029;58.708;50.190;2024-01-25T02:41:46;99381.59;;;-8.20;80.66
54122;BME280;40029;58.708;50.190;2024-01-25T02:44:17;99381.50;;;-8.23;80.54
54122;BME280;40029;58.708;50.190;2024-01-25T02:46:48;99377.16;;;-8.26;80.66
54122;BME280;40029;58.708;50.190;2024-01-25T02:49:20;99386.75;;;-8.19;80.75
54122;BME280;40029;58.708;50.190;2024-01-25T02:51:51;99389.97;;;-8.26;80.89
54122;BME280;40029;58.708;50.190;2024-01-25T02:54:22;99392.59;;;-8.24;80.84
54122;BME280;40029;58.708;50.190;2024-01-25T02:56:54;99402.16;;;-8.19;80.33
54122;BME280;40029;58.708;50.190;2024-01-25T02:59:25;99393.59;;;-8.18;80.70
54122;BME280;40029;58.708;50.190;2024-01-25T03:01:57;99392.84;;;-8.15;80.20
54122;BME280;40029;58.708;50.190;2024-01-25T03:04:28;99397.94;;;-8.17;80.44
54122;BME280;40029;58.708;50.190;2024-01-25T03:06:59;99399.66;;;-8.16;80.56
54122;BME280;40029;58.708;50.190;2024-01-25T03:09:30;99395.41;;;-8.15;80.29
54122;BME280;40029;58.708;50.190;2024-01-25T03:12:02;99390.09;;;-8.21;80.40
54122;BME280;40029;58.708;50.190;2024-01-25T03:14:33;99391.03;;;-8.18;80.11
54122;BME280;40029;58.708;50.190;2024-01-25T03:17:07;99399.50;;;-8.22;80.09
54122;BME280;40029;58.708;50.190;2024-01-25T03:19:56;99399.44;;;-8.23;80.36
54122;BME280;40029;58.708;50.190;2024-01-25T03:22:28;99402.91;;;-8.21;80.09
54122;BME280;40029;58.708;50.190;2024-01-25T03:24:59;99412.41;;;-8.17;80.08
54122;BME280;40029;58.708;50.190;2024-01-25T03:27:30;99400.50;;;-8.17;79.74
54122;BME280;40029;58.708;50.190;2024-01-25T03:30:01;99399.75;;;-8.12;79.91
54122;BME280;40029;58.708;50.190;2024-01-25T03:32:35;99405.53;;;-8.20;79.67
54122;BME280;40029;58.708;50.190;2024-01-25T03:35:07;99410.41;;;-8.29;80.34
54122;BME280;40029;58.708;50.190;2024-01-25T03:37:38;99411.97;;;-8.34;80.71
54122;BME280;40029;58.708;50.190;2024-01-25T03:40:28;99410.56;;;-8.23;80.39
54122;BME280;40029;58.708;50.190;2024-01-25T03:42:59;99407.28;;;-8.19;80.25
54122;BME280;40029;58.708;50.190;2024-01-25T03:45:30;99407.97;;;-8.24;80.15
54122;BME280;40029;58.708;50.190;2024-01-25T03:48:21;99396.69;;;-8.31;80.75
54122;BME280;40029;58.708;50.190;2024-01-25T03:50:52;99401.81;;;-8.31;80.74
54122;BME280;40029;58.708;50.190;2024-01-25T03:53:27;99396.78;;;-8.28;80.66
54122;BME280;40029;58.708;50.190;2024-01-25T03:55:58;99396.78;;;-8.28;80.89
54122;BME280;40029;58.708;50.190;2024-01-25T03:58:29;99396.53;;;-8.36;80.72
54122;BME280;40029;58.708;50.190;2024-01-25T04:01:00;99395.81;;;-8.30;81.19
54122;BME280;40029;58.708;50.190;2024-01-25T04:03:31;99403.53;;;-8.30;80.89
54122;BME280;40029;58.708;50.190;2024-01-25T04:06:03;99397.72;;;-8.24;80.64
54122;BME280;40029;58.708;50.190;2024-01-25T04:08:34;99401.00;;;-8.28;81.38
54122;BME280;40029;58.708;50.190;2024-01-25T04:11:24;99401.81;;;-8.31;81.53
54122;BME280;40029;58.708;50.190;2024-01-25T04:13:55;99411.25;;;-8.28;80.94
54122;BME280;40029;58.708;50.190;2024-01-25T04:16:26;99406.69;;;-8.40;81.10
54122;BME280;40029;58.708;50.190;2024-01-25T04:19:17;99406.09;;;-8.30;81.09
54122;BME280;40029;58.708;50.190;2024-01-25T04:21:48;99401.00;;;-8.28;80.89
54122;BME280;40029;58.708;50.190;2024-01-25T04:24:19;99407.97;;;-8.24;80.76
54122;BME280;40029;58.708;50.190;2024-01-25T04:27:10;99403.91;;;-8.16;80.76
54122;BME280;40029;58.708;50.190;2024-01-25T04:29:41;99401.25;;;-8.19;81.18
54122;BME280;40029;58.708;50.190;2024-01-25T04:32:12;99406.31;;;-8.22;80.81
54122;BME280;40029;58.708;50.190;2024-01-25T04:34:44;99403.72;;;-8.24;81.29
54122;BME280;40029;58.708;50.190;2024-01-25T04:37:17;99398.50;;;-8.27;81.52
54122;BME280;40029;58.708;50.190;2024-01-25T04:39:48;99407.28;;;-8.19;80.99
54122;BME280;40029;58.708;50.190;2024-01-25T04:42:19;99409.84;;;-8.19;81.50
54122;BME280;40029;58.708;50.190;2024-01-25T04:44:51;99404.72;;;-8.19;81.27
54122;BME280;40029;58.708;50.190;2024-01-25T04:47:22;99409.03;;;-8.16;81.46
54122;BME280;40029;58.708;50.190;2024-01-25T04:49:53;99407.22;;;-8.20;81.23
54122;BME280;40029;58.708;50.190;2024-01-25T04:52:25;99405.66;;;-8.15;81.39
54122;BME280;40029;58.708;50.190;2024-01-25T04:54:56;99410.75;;;-8.17;80.98
54122;BME280;40029;58.708;50.190;2024-01-25T04:57:27;99410.50;;;-8.26;81.18
54122;BME280;40029;58.708;50.190;2024-01-25T04:59:58;99406.38;;;-8.19;81.05
54122;BME280;40029;58.708;50.190;2024-01-25T05:02:30;99407.09;;;-8.25;81.13
54122;BME280;40029;58.708;50.190;2024-01-25T05:05:01;99408.13;;;-8.18;81.39
54122;BME280;40029;58.708;50.190;2024-01-25T05:07:35;99406.97;;;-7.98;81.00
54122;BME280;40029;58.708;50.190;2024-01-25T05:10:06;99410.28;;;-8.02;81.20
54122;BME280;40029;58.708;50.190;2024-01-25T05:12:38;99410.28;;;-8.02;81.17
54122;BME280;40029;58.708;50.190;2024-01-25T05:15:10;99416.91;;;-8.10;80.78
54122;BME280;40029;58.708;50.190;2024-01-25T05:17:41;99419.41;;;-8.11;80.83
54122;BME280;40029;58.708;50.190;2024-01-25T05:20:31;99426.25;;;-8.12;81.01
54122;BME280;40029;58.708;50.190;2024-01-25T05:23:04;99415.13;;;-8.12;81.04
54122;BME280;40029;58.708;50.190;2024-01-25T05:25:35;99430.31;;;-8.20;81.41
54122;BME280;40029;58.708;50.190;2024-01-25T05:28:07;99426.03;;;-8.20;81.14
54122;BME280;40029;58.708;50.190;2024-01-25T05:30:38;99423.72;;;-8.10;81.08
54122;BME280;40029;58.708;50.190;2024-01-25T05:33:09;99429.63;;;-8.15;81.24
54122;BME280;40029;58.708;50.190;2024-01-25T05:35:41;99428.91;;;-8.09;81.21
54122;BME280;40029;58.708;50.190;2024-01-25T05:38:12;99424.47;;;-8.15;81.07
54122;BME280;40029;58.708;50.190;2024-01-25T05:40:43;99424.78;;;-8.04;81.16
54122;BME280;40029;58.708;50.190;2024-01-25T05:43:15;99426.69;;;-7.95;80.73
54122;BME280;40029;58.708;50.190;2024-01-25T05:45:46;99428.16;;;-8.05;81.10
54122;BME280;40029;58.708;50.190;2024-01-25T05:48:18;99425.50;;;-8.08;81.30
54122;BME280;40029;58.708;50.190;2024-01-25T05:50:49;99431.69;;;-8.01;81.03
54122;BME280;40029;58.708;50.190;2024-01-25T05:53:20;99431.13;;;-7.89;80.78
54122;BME280;40029;58.708;50.190;2024-01-25T05:55:52;99433.69;;;-7.91;80.50
54122;BME280;40029;58.708;50.190;2024-01-25T05:58:42;99427.97;;;-7.79;80.50
54122;BME280;40029;58.708;50.190;2024-01-25T06:01:14;99419.19;;;-7.89;81.14
54122;BME280;40029;58.708;50.190;2024-01-25T06:03:45;99432.06;;;-7.87;81.07
54122;BME280;40029;58.708;50.190;2024-01-25T06:06:16;99426.63;;;-7.98;81.10
54122;BME280;40029;58.708;50.190;2024-01-25T06:08:48;99424.31;;;-7.89;80.57
54122;BME280;40029;58.708;50.190;2024-01-25T06:11:19;99430.25;;;-7.90;80.71
54122;BME280;40029;58.708;50.190;2024-01-25T06:13:50;99429.84;;;-7.73;80.88
54122;BME280;40029;58.708;50.190;2024-01-25T06:16:21;99433.03;;;-7.82;80.96
54122;BME280;40029;58.708;50.190;2024-01-25T06:18:52;99443.56;;;-7.71;80.60
54122;BME280;40029;58.708;50.190;2024-01-25T06:21:24;99454.50;;;-7.79;80.20
54122;BME280;40029;58.708;50.190;2024-01-25T06:23:55;99451.91;;;-7.80;80.84
54122;BME280;40029;58.708;50.190;2024-01-25T06:26:27;99445.44;;;-7.66;80.25
54122;BME280;40029;58.708;50.190;2024-01-25T06:29:16;99446.94;;;-7.74;80.59
54122;BME280;40029;58.708;50.190;2024-01-25T06:31:47;99448.03;;;-7.64;79.90
54122;BME280;40029;58.708;50.190;2024-01-25T06:34:19;99445.56;;;-7.61;80.07
54122;BME280;40029;58.708;50.190;2024-01-25T06:36:50;99451.47;;;-7.65;79.80
54122;BME280;40029;58.708;50.190;2024-01-25T06:39:22;99450.69;;;-7.61;79.42
54122;BME280;40029;58.708;50.190;2024-01-25T06:41:53;99449.78;;;-7.63;79.95
54122;BME280;40029;58.708;50.190;2024-01-25T06:44:24;99455.66;;;-7.67;79.61
54122;BME280;40029;58.708;50.190;2024-01-25T06:46:55;99454.75;;;-7.69;79.82
54122;BME280;40029;58.708;50.190;2024-01-25T06:49:27;99452.94;;;-7.73;80.07
54122;BME280;40029;58.708;50.190;2024-01-25T06:51:58;99451.50;;;-7.62;80.12
54122;BME280;40029;58.708;50.190;2024-01-25T06:54:29;99455.06;;;-7.57;79.87
54122;BME280;40029;58.708;50.190;2024-01-25T06:57:00;99454.97;;;-7.60;79.80
54122;BME280;40029;58.708;50.190;2024-01-25T06:59:50;99458.50;;;-7.57;79.82
54122;BME280;40029;58.708;50.190;2024-01-25T07:02:39;99455.44;;;-7.42;79.58
54122;BME280;40029;58.708;50.190;2024-01-25T07:05:10;99455.59;;;-7.37;79.52
54122;BME280;40029;58.708;50.190;2024-01-25T07:07:42;99465.72;;;-7.42;79.51
54122;BME280;40029;58.708;50.190;2024-01-25T07:10:13;99465.00;;;-7.36;79.23
54122;BME280;40029;58.708;50.190;2024-01-25T07:12:44;99464.16;;;-7.37;78.88
54122;BME280;40029;58.708;50.190;2024-01-25T07:15:16;99467.09;;;-7.56;79.46
54122;BME280;40029;58.708;50.190;2024-01-25T07:17:48;99475.63;;;-7.57;79.85
54122;BME280;40029;58.708;50.190;2024-01-25T07:20:19;99475.22;;;-7.39;79.44
54122;BME280;40029;58.708;50.190;2024-01-25T07:22:50;99469.31;;;-7.35;79.28
54122;BME280;40029;58.708;50.190;2024-01-25T07:25:22;99473.75;;;-7.29;78.68
54122;BME280;40029;58.708;50.190;2024-01-25T07:28:11;99476.31;;;-7.29;79.08
54122;BME280;40029;58.708;50.190;2024-01-25T07:30:43;99480.13;;;-7.13;78.88
54122;BME280;40029;58.708;50.190;2024-01-25T07:33:14;99483.66;;;-7.08;78.58
54122;BME280;40029;58.708;50.190;2024-01-25T07:36:04;99484.03;;;-7.29;78.60
54122;BME280;40029;58.708;50.190;2024-01-25T07:38:35;99488.41;;;-7.25;78.85
54122;BME280;40029;58.708;50.190;2024-01-25T07:41:06;99482.78;;;-7.44;78.96
54122;BME280;40029;58.708;50.190;2024-01-25T07:43:38;99484.09;;;-7.26;79.15
54122;BME280;40029;58.708;50.190;2024-01-25T07:46:09;99483.34;;;-7.22;79.16
54122;BME280;40029;58.708;50.190;2024-01-25T07:48:41;99489.34;;;-7.22;78.73
54122;BME280;40029;58.708;50.190;2024-01-25T07:51:13;99490.19;;;-7.21;78.88
54122;BME280;40029;58.708;50.190;2024-01-25T07:53:44;99492.91;;;-7.16;78.75
54122;BME280;40029;58.708;50.190;2024-01-25T07:56:15;99490.25;;;-7.20;78.35
54122;BME280;40029;58.708;50.190;2024-01-25T07:58:48;99489.44;;;-7.19;78.77
54122;BME280;40029;58.708;50.190;2024-01-25T08:01:19;99492.03;;;-7.17;78.96
54122;BME280;40029;58.708;50.190;2024-01-25T08:03:50;99489.25;;;-7.26;79.09
54122;BME280;40029;58.708;50.190;2024-01-25T08:06:21;99494.44;;;-7.25;78.88
54122;BME280;40029;58.708;50.190;2024-01-25T08:08:53;99493.72;;;-7.19;78.83
54122;BME280;40029;58.708;50.190;2024-01-25T08:11:26;99491.16;;;-7.18;79.10
54122;BME280;40029;58.708;50.190;2024-01-25T08:13:57;99497.13;;;-7.19;78.93
54122;BME280;40029;58.708;50.190;2024-01-25T08:16:28;99498.84;;;-7.19;78.48
54122;BME280;40029;58.708;50.190;2024-01-25T08:19:00;99500.66;;;-7.15;79.03
54122;BME280;40029;58.708;50.190;2024-01-25T08:21:31;99498.13;;;-7.12;78.66
54122;BME280;40029;58.708;50.190;2024-01-25T08:24:02;99497.00;;;-7.23;78.92
54122;BME280;40029;58.708;50.190;2024-01-25T08:26:34;99502.22;;;-7.20;79.00
54122;BME280;40029;58.708;50.190;2024-01-25T08:29:05;99501.78;;;-7.04;79.14
54122;BME280;40029;58.708;50.190;2024-01-25T08:31:36;99498.09;;;-7.15;79.00
54122;BME280;40029;58.708;50.190;2024-01-25T08:34:07;99501.75;;;-7.05;78.56
54122;BME280;40029;58.708;50.190;2024-01-25T08:36:39;99496.56;;;-7.07;78.80
54122;BME280;40029;58.708;50.190;2024-01-25T08:39:10;99499.44;;;-6.94;78.84
54122;BME280;40029;58.708;50.190;2024-01-25T08:41:42;99508.47;;;-7.10;78.98
54122;BME280;40029;58.708;50.190;2024-01-25T08:44:13;99503.09;;;-7.20;78.65
54122;BME280;40029;58.708;50.190;2024-01-25T08:47:03;99511.97;;;-7.07;78.96
54122;BME280;40029;58.708;50.190;2024-01-25T08:49:38;99507.69;;;-7.08;78.74
54122;BME280;40029;58.708;50.190;2024-01-25T08:52:09;99501.81;;;-7.02;78.66
54122;BME280;40029;58.708;50.190;2024-01-25T08:54:40;99512.97;;;-7.02;78.92
54122;BME280;40029;58.708;50.190;2024-01-25T08:57:12;99501.91;;;-6.97;78.48
54122;BME280;40029;58.708;50.190;2024-01-25T08:59:46;99503.84;;;-6.89;78.29
54122;BME280;40029;58.708;50.190;2024-01-25T09:02:17;99508.34;;;-6.80;78.29
54122;BME280;40029;58.708;50.190;2024-01-25T09:04:49;99504.88;;;-6.82;78.48
54122;BME280;40029;58.708;50.190;2024-01-25T09:07:21;99510.78;;;-6.85;78.15
54122;BME280;40029;58.708;50.190;2024-01-25T09:09:52;99505.69;;;-6.83;78.27
54122;BME280;40029;58.708;50.190;2024-01-25T09:12:24;99501.66;;;-6.72;77.78
54122;BME280;40029;58.708;50.190;2024-01-25T09:14:55;99505.94;;;-6.72;77.67
54122;BME280;40029;58.708;50.190;2024-01-25T09:17:26;99512.38;;;-6.91;77.73
54122;BME280;40029;58.708;50.190;2024-01-25T09:20:16;99503.19;;;-6.80;78.00
54122;BME280;40029;58.708;50.190;2024-01-25T09:23:06;99503.19;;;-6.80;77.89
54122;BME280;40029;58.708;50.190;2024-01-25T09:25:56;99508.59;;;-6.68;77.45
54122;BME280;40029;58.708;50.190;2024-01-25T09:28:27;99504.06;;;-6.80;77.40
54122;BME280;40029;58.708;50.190;2024-01-25T09:30:58;99502.66;;;-6.67;77.15
54122;BME280;40029;58.708;50.190;2024-01-25T09:33:29;99505.22;;;-6.67;77.63
54122;BME280;40029;58.708;50.190;2024-01-25T09:36:01;99505.34;;;-6.61;77.85
54122;BME280;40029;58.708;50.190;2024-01-25T09:38:33;99508.06;;;-6.54;77.58
54122;BME280;40029;58.708;50.190;2024-01-25T09:41:04;99508.13;;;-6.51;77.31
54122;BME280;40029;58.708;50.190;2024-01-25T09:43:36;99509.78;;;-6.53;77.22
54122;BME280;40029;58.708;50.190;2024-01-25T09:46:12;99514.94;;;-6.53;77.47
54122;BME280;40029;58.708;50.190;2024-01-25T09:48:44;99519.94;;;-6.60;77.50
54122;BME280;40029;58.708;50.190;2024-01-25T09:51:17;99518.97;;;-6.65;77.44
54122;BME280;40029;58.708;50.190;2024-01-25T09:53:49;99515.66;;;-6.59;77.24
54122;BME280;40029;58.708;50.190;2024-01-25T09:56:20;99515.78;;;-6.53;77.19
54122;BME280;40029;58.708;50.190;2024-01-25T09:58:54;99517.56;;;-6.52;77.50
54122;BME280;40029;58.708;50.190;2024-01-25T10:01:27;99516.03;;;-6.42;76.96
54122;BME280;40029;58.708;50.190;2024-01-25T10:03:58;99515.22;;;-6.41;77.11
54122;BME280;40029;58.708;50.190;2024-01-25T10:06:30;99519.50;;;-6.40;77.08
54122;BME280;40029;58.708;50.190;2024-01-25T10:09:04;99524.75;;;-6.37;76.50
54122;BME280;40029;58.708;50.190;2024-01-25T10:11:36;99520.97;;;-6.51;77.01
54122;BME280;40029;58.708;50.190;2024-01-25T10:14:08;99521.16;;;-6.45;77.58
54122;BME280;40029;58.708;50.190;2024-01-25T10:16:39;99514.38;;;-6.42;77.38
54122;BME280;40029;58.708;50.190;2024-01-25T10:19:11;99521.47;;;-6.30;77.09
54122;BME280;40029;58.708;50.190;2024-01-25T10:21:43;99517.22;;;-6.28;76.99
54122;BME280;40029;58.708;50.190;2024-01-25T10:24:14;99524.22;;;-6.21;76.69
54122;BME280;40029;58.708;50.190;2024-01-25T10:27:04;99524.19;;;-6.22;76.77
54122;BME280;40029;58.708;50.190;2024-01-25T10:29:35;99516.50;;;-6.21;77.53
54122;BME280;40029;58.708;50.190;2024-01-25T10:32:08;99522.44;;;-6.25;77.34
54122;BME280;40029;58.708;50.190;2024-01-25T10:34:39;99527.63;;;-6.22;77.46
54122;BME280;40029;58.708;50.190;2024-01-25T10:37:13;99534.44;;;-6.24;77.45
54122;BME280;40029;58.708;50.190;2024-01-25T10:39:45;99530.09;;;-6.28;77.40
54122;BME280;40029;58.708;50.190;2024-01-25T10:42:16;99530.75;;;-6.38;77.82
54122;BME280;40029;58.708;50.190;2024-01-25T10:45:07;99527.31;;;-6.37;78.15
54122;BME280;40029;58.708;50.190;2024-01-25T10:47:38;99541.03;;;-6.36;78.40
54122;BME280;40029;58.708;50.190;2024-01-25T10:50:12;99539.31;;;-6.37;78.03
54122;BME280;40029;58.708;50.190;2024-01-25T10:52:44;99537.72;;;-6.31;77.88
54122;BME280;40029;58.708;50.190;2024-01-25T10:55:17;99536.78;;;-6.36;78.49
54122;BME280;40029;58.708;50.190;2024-01-25T10:57:51;99535.53;;;-6.14;77.53
54122;BME280;40029;58.708;50.190;2024-01-25T11:00:23;99535.53;;;-6.12;77.22
54122;BME280;40029;58.708;50.190;2024-01-25T11:02:55;99541.06;;;-6.35;77.73
54122;BME280;40029;58.708;50.190;2024-01-25T11:05:26;99539.59;;;-6.25;77.92
54122;BME280;40029;58.708;50.190;2024-01-25T11:07:58;99541.34;;;-6.23;77.71
54122;BME280;40029;58.708;50.190;2024-01-25T11:10:35;99544.53;;;-6.33;77.86
54122;BME280;40029;58.708;50.190;2024-01-25T11:13:13;99552.47;;;-6.24;78.10
54122;BME280;40029;58.708;50.190;2024-01-25T11:15:46;99554.25;;;-6.21;78.01
54122;BME280;40029;58.708;50.190;2024-01-25T11:18:17;99549.06;;;-6.23;77.69
54122;BME280;40029;58.708;50.190;2024-01-25T11:20:49;99551.72;;;-6.19;77.80
54122;BME280;40029;58.708;50.190;2024-01-25T11:23:20;99553.25;;;-6.28;77.90
54122;BME280;40029;58.708;50.190;2024-01-25T11:25:54;99550.66;;;-6.28;78.25
54122;BME280;40029;58.708;50.190;2024-01-25T11:28:26;99553.16;;;-6.31;78.52
54122;BME280;40029;58.708;50.190;2024-01-25T11:30:58;99553.94;;;-6.35;78.34
54122;BME280;40029;58.708;50.190;2024-01-25T11:33:29;99553.03;;;-6.37;78.34
54122;BME280;40029;58.708;50.190;2024-01-25T11:36:00;99550.38;;;-6.40;78.34
54122;BME280;40029;58.708;50.190;2024-01-25T11:38:31;99556.56;;;-6.33;78.63
54122;BME280;40029;58.708;50.190;2024-01-25T11:41:02;99560.22;;;-6.22;78.14
54122;BME280;40029;58.708;50.190;2024-01-25T11:43:35;99562.84;;;-6.21;78.17
54122;BME280;40029;58.708;50.190;2024-01-25T11:46:08;99558.66;;;-6.15;77.94
54122;BME280;40029;58.708;50.190;2024-01-25T11:48:42;99562.03;;;-6.18;77.96
54122;BME280;40029;58.708;50.190;2024-01-25T11:51:13;99569.88;;;-6.13;78.05
54122;BME280;40029;58.708;50.190;2024-01-25T11:53:44;99561.25;;;-6.15;78.53
54122;BME280;40029;58.708;50.190;2024-01-25T11:56:37;99562.84;;;-6.21;78.60
54122;BME280;40029;58.708;50.190;2024-01-25T11:59:12;99565.91;;;-6.37;78.87
54122;BME280;40029;58.708;50.190;2024-01-25T12:02:02;99567.66;;;-6.36;78.52
54122;BME280;40029;58.708;50.190;2024-01-25T12:04:33;99565.16;;;-6.31;78.69
54122;BME280;40029;58.708;50.190;2024-01-25T12:07:24;99563.28;;;-6.38;78.89
54122;BME280;40029;58.708;50.190;2024-01-25T12:12:36;99570.91;;;-6.43;78.91
54122;BME280;40029;58.708;50.190;2024-01-25T12:15:09;99572.59;;;-6.45;78.93
54122;BME280;40029;58.708;50.190;2024-01-25T12:17:40;99574.97;;;-6.53;79.03
54122;BME280;40029;58.708;50.190;2024-01-25T12:20:11;99579.03;;;-6.63;79.09
54122;BME280;40029;58.708;50.190;2024-01-25T12:23:02;99578.41;;;-6.52;78.74
54122;BME280;40029;58.708;50.190;2024-01-25T12:25:39;99585.25;;;-6.54;78.84
54122;BME280;40029;58.708;50.190;2024-01-25T12:28:10;99592.88;;;-6.57;78.88
54122;BME280;40029;58.708;50.190;2024-01-25T12:30:41;99591.13;;;-6.58;78.69
54122;BME280;40029;58.708;50.190;2024-01-25T12:33:12;99592.09;;;-6.53;78.51
54122;BME280;40029;58.708;50.190;2024-01-25T12:35:44;99597.06;;;-6.61;78.89
54122;BME280;40029;58.708;50.190;2024-01-25T12:38:15;99593.78;;;-6.55;78.70
54122;BME280;40029;58.708;50.190;2024-01-25T12:40:48;99595.63;;;-6.50;78.84
54122;BME280;40029;58.708;50.190;2024-01-25T12:43:38;99599.81;;;-6.53;78.85
54122;BME280;40029;58.708;50.190;2024-01-25T12:46:09;99598.50;;;-6.72;79.43
54122;BME280;40029;58.708;50.190;2024-01-25T12:48:40;99604.59;;;-6.69;79.57
54122;BME280;40029;58.708;50.190;2024-01-25T12:51:11;99609.69;;;-6.70;79.68
54122;BME280;40029;58.708;50.190;2024-01-25T12:53:43;99614.97;;;-6.66;79.70
54122;BME280;40029;58.708;50.190;2024-01-25T12:56:14;99615.75;;;-6.68;79.75
54122;BME280;40029;58.708;50.190;2024-01-25T12:59:04;99614.88;;;-6.69;79.50
54122;BME280;40029;58.708;50.190;2024-01-25T13:01:36;99614.81;;;-6.72;79.63
54122;BME280;40029;58.708;50.190;2024-01-25T13:04:07;99616.47;;;-6.74;79.37
54122;BME280;40029;58.708;50.190;2024-01-25T13:06:39;99622.50;;;-6.72;79.53
54122;BME280;40029;58.708;50.190;2024-01-25T13:09:10;99636.94;;;-6.77;79.84
54122;BME280;40029;58.708;50.190;2024-01-25T13:11:42;99619.94;;;-6.72;80.05
54122;BME280;40029;58.708;50.190;2024-01-25T13:14:14;99619.94;;;-6.72;79.70
54122;BME280;40029;58.708;50.190;2024-01-25T13:16:45;99626.09;;;-6.67;79.85
54122;BME280;40029;58.708;50.190;2024-01-25T13:19:17;99625.25;;;-6.66;79.68
54122;BME280;40029;58.708;50.190;2024-01-25T13:21:48;99630.41;;;-6.64;79.53
54122;BME280;40029;58.708;50.190;2024-01-25T13:24:20;99633.59;;;-6.74;79.99
54122;BME280;40029;58.708;50.190;2024-01-25T13:26:51;99634.56;;;-6.71;79.86